Soaring Guidance
Issued by NWS Reno, NV

Home | Current Version | Previous Version | Text Only | Print | Product List | Glossary On
Versions: 1 2 3 4 5 6 7 8 9 10 11 12 13 14
196
UXUS97 KREV 011349
SRGREV

SOARING FORECAST
NATIONAL WEATHER SERVICE - RENO NV
700 AM PDT SAT OCT 1 2016

THIS SOARING FORECAST IS FOR THE EASTERN SIERRA AND WESTERN NEVADA
WITH SPECIFIC INDICES FOR THE GREATER RENO AREA.

THIS FORECAST IS PREPARED DAILY BY 700 AM AND IS NOT UPDATED.

FOR CURRENT FLIGHT CONDITIONS...FORECASTS...AND ADVISORIES...ACCESS
YOUR LOCAL BRIEFING OUTLET OR FLIGHT SERVICE STATION.

*******************************************************************
FORECASTED LOCAL INDICES FOR RENO:        TODAY     YESTERDAY
FORECASTED MAX TEMP AT RENO (DEG F).....     72          81
FORECASTED TRIGGER TEMPERATURE (DEG F)..     61          69
   EXCEEDED YESTERDAY BY 955 AM PDT
FORECASTED MAXIMUM ALTITUDE (FT MSL)....  14300       13400
FORECASTED SOARING INDEX (FPM)..........    819         702
FORECASTED K-INDEX.........VALID 18Z....      1          13
FORECASTED K-INDEX.........VALID 00Z....     -8          22
FORECASTED LIFTED INDEX....VALID 18Z....      6           4
FORECASTED LIFTED INDEX....VALID 00Z....     10           3

AFTERNOON WINDS ALOFT FORECAST
MSL (FT) WIND/TEMP
9000  2409/+06
10000 2111/+03
12000 2016/-02
14000 2019/-06
16000 2123/-10
18000 2233/-15
24000 2440/-28
30000 2466/-42
34000 2483/-50
39000 2496/-55

SLIDE MOUNTAIN DATA:
     DATE       TIME     TEMP  DEWPT   RH         WIND (MPH)
                        (F)   (F)           | DIR  SPEED GUST
2016-10-01    04:30      33    29     80    | 246   41   61
2016-10-01    04:20      33    29     82    | 247   38   54
2016-10-01    04:00      33    29     81    | 249   39   53
2016-10-01    03:50      33    30     84    | 245   38   50

RENO TAF FORECAST:
KRNO 011121Z 0112/0212 26011KT P6SM FEW100 WS020/24045KT
     FM011700 27014G22KT P6SM FEW100
     FM020200 30011G19KT P6SM SKC
     FM020500 33008KT P6SM SKC

CARSON CITY TAF FORECAST:
KCXP 011121Z 0112/0212 22010G20KT P6SM FEW100 WS020/24045KT
     FM011700 26012G22KT P6SM FEW100
     FM012000 27014G25KT P6SM SKC
     FM020400 29007KT P6SM SKC

OUTLOOK FOR THE RENO-CARSON CITY-MINDEN AREA:
.SUNDAY...SUNNY IN THE MORNING...THEN MOSTLY CLOUDY WITH A SLIGHT
CHANCE OF SHOWERS IN THE AFTERNOON. HIGHS 56 TO 61. SOUTHWEST
WINDS 10 TO 15 MPH INCREASING TO 15 TO 25 MPH WITH GUSTS UP TO
40 MPH IN THE AFTERNOON.

SUNRISE AND SUNSET
OCTOBER  1 2016.......SUNRISE   656 AM PDT   SUNSET   641 PM PDT
OCTOBER  2 2016.......SUNRISE   657 AM PDT   SUNSET   639 PM PDT



USA.gov is the U.S. government's official web portal to all federal, state and local government web resources and services.